Time;durP1;ratioP1;P1;durP2;ratioP2;P2;SDS_P1;SDS_P2;PMS_P1;PMS_P2;Temp;Humidity;BMP_temperature;BMP_pressure;BME280_temperature;BME280_humidity;BME280_pressure;Samples;Min_cycle;Max_cycle;Signal;HPM_P1;HPM_P2
2021/08/24 00:02:24;;;;;;;;;;;;;;;20.17;50.22;102090.59;4993090;28;100283;-77
2021/08/24 00:04:50;;;;;;;;;;;;;;;19.07;53.62;102092.75;4997349;28;97190;-78
2021/08/24 00:07:16;;;;;;;;;;;;;;;19.00;53.94;102101.16;4994450;28;99003;-76
2021/08/24 00:09:43;;;;;;;;;;;;;;;18.93;54.10;102095.25;4995124;28;96987;-77
2021/08/24 00:12:09;;;;;;;;;;;;;;;18.97;54.15;102099.50;4992586;28;97990;-78
2021/08/24 00:14:37;;;;;;;;;;;;;;;19.48;52.77;102100.56;4996115;28;96727;-77
2021/08/24 00:17:03;;;;;;;;;;;;;;;19.89;51.41;102101.06;4995170;28;98461;-77
2021/08/24 00:19:29;;;;;;;;;;;;;;;19.90;51.59;102103.66;4991540;28;98942;-77
2021/08/24 00:21:55;;;;;;;;;;;;;;;19.36;52.76;102099.31;4986855;28;100252;-77
2021/08/24 00:24:22;;;;;;;;;;;;;;;19.56;52.37;102100.16;4994454;28;98878;-77
2021/08/24 00:26:48;;;;;;;;;;;;;;;19.25;53.30;102098.13;4994147;28;96869;-77
2021/08/24 00:29:14;;;;;;;;;;;;;;;19.78;51.85;102093.59;4997187;28;99287;-77
2021/08/24 00:31:42;;;;;;;;;;;;;;;19.28;53.45;102095.31;5000761;28;98015;-77
2021/08/24 00:34:08;;;;;;;;;;;;;;;19.79;51.78;102103.38;4998784;28;98578;-78
2021/08/24 00:36:34;;;;;;;;;;;;;;;19.74;52.23;102107.25;4993386;28;97540;-78
2021/08/24 00:39:01;;;;;;;;;;;;;;;19.82;51.54;102108.56;4995066;28;99047;-77
2021/08/24 00:41:28;;;;;;;;;;;;;;;19.26;53.32;102113.25;4994304;28;99110;-76
2021/08/24 00:43:55;;;;;;;;;;;;;;;19.59;52.67;102119.63;4994908;28;96915;-77
2021/08/24 00:46:28;;;;;;;;;;;;;;;19.39;53.14;102115.25;4993402;28;97352;-78
2021/08/24 00:48:56;;;;;;;;;;;;;;;18.64;55.43;102114.53;4995846;28;99603;-77
2021/08/24 00:51:24;;;;;;;;;;;;;;;18.64;55.66;102112.69;4995795;28;98798;-75
2021/08/24 00:53:51;;;;;;;;;;;;;;;18.95;54.79;102119.28;4997408;28;96945;-77
2021/08/24 00:56:18;;;;;;;;;;;;;;;19.10;54.55;102122.06;4998137;28;96822;-76
2021/08/24 00:58:44;;;;;;;;;;;;;;;18.61;55.60;102123.56;4997413;28;98982;-79
2021/08/24 01:01:11;;;;;;;;;;;;;;;18.66;55.92;102120.66;4996247;28;98054;-76
2021/08/24 01:03:41;;;;;;;;;;;;;;;18.36;56.75;102132.78;4997166;28;96757;-75
2021/08/24 01:06:17;;;;;;;;;;;;;;;18.22;57.15;102122.72;4991593;28;98792;-78
2021/08/24 01:08:48;;;;;;;;;;;;;;;18.12;57.32;102127.59;4994019;28;97908;-77
2021/08/24 01:11:19;;;;;;;;;;;;;;;18.36;56.88;102124.75;4993600;28;98922;-78
2021/08/24 01:13:51;;;;;;;;;;;;;;;18.11;57.38;102127.69;4989905;28;97139;-77
2021/08/24 01:16:23;;;;;;;;;;;;;;;17.80;58.92;102123.69;4992154;28;97045;-78
2021/08/24 01:18:56;;;;;;;;;;;;;;;17.87;58.07;102129.63;4995540;28;98999;-77
2021/08/24 01:21:44;;;;;;;;;;;;;;;17.79;58.65;102129.97;4993781;28;98766;-78
2021/08/24 01:24:14;;;;;;;;;;;;;;;18.19;57.70;102128.19;4996403;28;96729;-77
2021/08/24 01:26:43;;;;;;;;;;;;;;;17.97;58.32;102135.44;4991296;28;98595;-77
2021/08/24 01:29:21;;;;;;;;;;;;;;;18.10;57.65;102139.31;4999792;28;99023;-77
2021/08/24 01:31:55;;;;;;;;;;;;;;;17.85;58.50;102135.03;4993766;28;97620;-77
2021/08/24 01:34:26;;;;;;;;;;;;;;;17.44;59.67;102147.50;4997899;28;96760;-78
2021/08/24 01:36:57;;;;;;;;;;;;;;;17.38;60.11;102139.72;4978425;28;96914;-77
2021/08/24 01:39:26;;;;;;;;;;;;;;;17.67;59.53;102138.50;4995597;28;98662;-77
2021/08/24 01:42:06;;;;;;;;;;;;;;;17.76;59.03;102138.13;4993755;28;99205;-77
2021/08/24 01:44:35;;;;;;;;;;;;;;;17.86;58.39;102139.44;4993054;28;97169;-77
2021/08/24 01:47:04;;;;;;;;;;;;;;;17.97;58.46;102143.47;4992349;28;97668;-76
2021/08/24 01:49:33;;;;;;;;;;;;;;;18.55;56.53;102139.91;4996568;28;99154;-78
2021/08/24 01:52:03;;;;;;;;;;;;;;;18.17;57.66;102143.47;4990970;28;99086;-76
2021/08/24 01:54:32;;;;;;;;;;;;;;;17.70;59.04;102149.09;4993988;28;98122;-77
2021/08/24 01:56:59;;;;;;;;;;;;;;;17.44;60.21;102142.16;4991663;28;97306;-76
2021/08/24 01:59:28;;;;;;;;;;;;;;;17.65;59.61;102139.53;4993072;28;98892;-76
2021/08/24 02:01:56;;;;;;;;;;;;;;;17.86;58.76;102142.13;4992831;28;98904;-76
2021/08/24 02:04:25;;;;;;;;;;;;;;;17.73;59.50;102138.25;4996585;28;96778;-76
2021/08/24 02:06:52;;;;;;;;;;;;;;;18.17;57.89;102138.09;4990546;28;96870;-76
2021/08/24 02:09:23;;;;;;;;;;;;;;;17.95;58.26;102140.00;4991649;28;101998;-75
2021/08/24 02:11:51;;;;;;;;;;;;;;;18.36;57.19;102144.34;4984467;28;98921;-76
2021/08/24 02:14:18;;;;;;;;;;;;;;;18.65;56.15;102151.91;4992969;28;97238;-75
2021/08/24 02:16:46;;;;;;;;;;;;;;;18.18;57.45;102153.22;4993338;28;98767;-75
2021/08/24 02:19:14;;;;;;;;;;;;;;;18.11;58.18;102149.97;4994730;28;99606;-76
2021/08/24 02:21:43;;;;;;;;;;;;;;;17.86;58.56;102158.16;4992274;28;99418;-76
2021/08/24 02:24:12;;;;;;;;;;;;;;;17.60;59.54;102152.16;4994920;28;96830;-75
2021/08/24 02:26:41;;;;;;;;;;;;;;;17.80;59.09;102152.22;4992476;28;96997;-77
2021/08/24 02:29:07;;;;;;;;;;;;;;;17.66;59.50;102152.81;4992191;28;98930;-78
2021/08/24 02:31:39;;;;;;;;;;;;;;;17.78;59.05;102154.97;4991871;28;97720;-77
2021/08/24 02:34:10;;;;;;;;;;;;;;;17.73;59.37;102158.75;4997839;28;97236;-77
2021/08/24 02:36:41;;;;;;;;;;;;;;;18.04;58.07;102153.84;4994930;28;97497;-76
2021/08/24 02:39:11;;;;;;;;;;;;;;;17.98;58.22;102158.59;4996425;28;101603;-78
2021/08/24 02:41:41;;;;;;;;;;;;;;;17.81;58.60;102167.34;4996020;28;98937;-77
2021/08/24 02:44:12;;;;;;;;;;;;;;;18.06;58.20;102165.31;4996441;28;97013;-76
2021/08/24 02:46:40;;;;;;;;;;;;;;;17.59;59.58;102163.81;4995231;28;96961;-75
2021/08/24 02:49:08;;;;;;;;;;;;;;;17.38;60.54;102168.25;4995473;28;98970;-76
2021/08/24 02:51:34;;;;;;;;;;;;;;;17.70;59.18;102170.47;4993380;28;97593;-76
2021/08/24 02:54:04;;;;;;;;;;;;;;;17.22;60.81;102173.34;4996196;28;96916;-76
2021/08/24 02:56:30;;;;;;;;;;;;;;;17.25;61.08;102175.03;4995668;28;97095;-76
2021/08/24 02:58:56;;;;;;;;;;;;;;;17.10;61.38;102176.50;4994293;28;98976;-76
2021/08/24 03:01:24;;;;;;;;;;;;;;;17.66;59.57;102168.84;4996015;28;99055;-75
2021/08/24 03:03:50;;;;;;;;;;;;;;;17.72;59.15;102168.59;4992771;28;97151;-76
2021/08/24 03:06:16;;;;;;;;;;;;;;;17.57;59.55;102165.69;4986543;28;97340;-74
2021/08/24 03:08:43;;;;;;;;;;;;;;;17.12;61.34;102166.66;4990997;28;99378;-76
2021/08/24 03:11:10;;;;;;;;;;;;;;;17.09;61.17;102162.28;4996367;28;98783;-76
2021/08/24 03:13:40;;;;;;;;;;;;;;;16.88;62.00;102168.47;4994340;28;97681;-76
2021/08/24 03:16:11;;;;;;;;;;;;;;;16.86;62.26;102169.47;4994202;28;96813;-75
2021/08/24 03:18:41;;;;;;;;;;;;;;;17.07;61.39;102173.94;4992639;28;100971;-76
2021/08/24 03:21:10;;;;;;;;;;;;;;;16.86;62.07;102166.81;4991716;28;98820;-76
2021/08/24 03:23:37;;;;;;;;;;;;;;;16.65;62.99;102172.03;4991267;28;97189;-77
2021/08/24 03:26:03;;;;;;;;;;;;;;;17.20;61.23;102175.19;4988437;28;97873;-76
2021/08/24 03:28:30;;;;;;;;;;;;;;;17.08;61.29;102178.38;4989659;28;99383;-77
2021/08/24 03:30:56;;;;;;;;;;;;;;;16.93;62.03;102179.88;4991708;28;99478;-77
2021/08/24 03:33:22;;;;;;;;;;;;;;;17.79;59.00;102175.41;4994933;28;96880;-77
2021/08/24 03:35:50;;;;;;;;;;;;;;;17.68;58.93;102177.69;4991156;28;98511;-77
2021/08/24 03:38:16;;;;;;;;;;;;;;;17.54;59.67;102175.56;4991096;28;97971;-76
2021/08/24 03:40:42;;;;;;;;;;;;;;;17.80;58.79;102176.28;4992602;28;99251;-76
2021/08/24 03:43:08;;;;;;;;;;;;;;;17.75;58.96;102181.84;4993370;28;97207;-77
2021/08/24 03:45:35;;;;;;;;;;;;;;;17.52;59.71;102181.91;4989120;28;97038;-76
2021/08/24 03:48:01;;;;;;;;;;;;;;;17.48;59.89;102188.31;4992857;28;99062;-77
2021/08/24 03:50:27;;;;;;;;;;;;;;;17.24;60.52;102192.84;4992017;28;98096;-76
2021/08/24 03:52:55;;;;;;;;;;;;;;;17.87;58.48;102189.31;4985137;28;97037;-76
2021/08/24 03:55:21;;;;;;;;;;;;;;;17.71;59.20;102190.94;4993333;28;98323;-77
2021/08/24 03:57:47;;;;;;;;;;;;;;;17.56;59.56;102191.53;4991199;28;99323;-77
2021/08/24 04:00:14;;;;;;;;;;;;;;;17.85;58.37;102185.00;4986133;28;98885;-77
2021/08/24 04:02:41;;;;;;;;;;;;;;;18.02;57.96;102195.81;4989954;28;97736;-77
2021/08/24 04:05:07;;;;;;;;;;;;;;;17.86;58.35;102195.59;4987705;28;97637;-80
2021/08/24 04:07:34;;;;;;;;;;;;;;;17.96;57.98;102201.44;4989380;28;99122;-76
2021/08/24 04:10:02;;;;;;;;;;;;;;;17.88;58.33;102192.88;4990762;28;99235;-76
2021/08/24 04:12:28;;;;;;;;;;;;;;;18.07;57.71;102200.97;4993586;28;97075;-76
2021/08/24 04:14:54;;;;;;;;;;;;;;;17.97;57.73;102207.66;4992077;28;98566;-77
2021/08/24 04:17:21;;;;;;;;;;;;;;;17.67;58.56;102209.81;4979715;28;99282;-76
2021/08/24 04:19:47;;;;;;;;;;;;;;;17.40;59.74;102209.13;4992189;28;98534;-77
2021/08/24 04:22:18;;;;;;;;;;;;;;;17.71;58.62;102209.66;4991058;28;96867;-77
2021/08/24 04:24:44;;;;;;;;;;;;;;;18.02;57.93;102208.31;4993172;28;96922;-77
2021/08/24 04:27:12;;;;;;;;;;;;;;;18.04;57.62;102207.34;4989121;28;99257;-77
2021/08/24 04:29:38;;;;;;;;;;;;;;;18.15;57.49;102210.41;4989533;28;99210;-75
2021/08/24 04:32:06;;;;;;;;;;;;;;;18.08;57.50;102211.59;4990453;28;96897;-76
2021/08/24 04:34:32;;;;;;;;;;;;;;;18.37;56.50;102212.13;4992496;28;97597;-76
2021/08/24 04:36:58;;;;;;;;;;;;;;;18.22;56.87;102221.69;4986008;28;99497;-76
2021/08/24 04:39:25;;;;;;;;;;;;;;;18.12;56.76;102228.38;4995069;28;97752;-75
2021/08/24 04:41:51;;;;;;;;;;;;;;;18.17;56.96;102229.94;4994733;28;96815;-76
2021/08/24 04:44:19;;;;;;;;;;;;;;;17.73;58.38;102226.47;4995968;28;97008;-76
2021/08/24 04:46:45;;;;;;;;;;;;;;;17.80;58.04;102219.94;4990961;28;98873;-76
2021/08/24 04:49:12;;;;;;;;;;;;;;;17.69;58.51;102229.34;4991977;28;98964;-75
2021/08/24 04:51:38;;;;;;;;;;;;;;;18.09;57.73;102232.06;4989854;28;97789;-76
2021/08/24 04:54:04;;;;;;;;;;;;;;;17.79;58.06;102234.22;4993179;28;96816;-76
2021/08/24 04:56:31;;;;;;;;;;;;;;;17.57;58.70;102233.38;4989989;28;97792;-75
2021/08/24 04:58:57;;;;;;;;;;;;;;;17.49;59.18;102240.81;4996371;28;97159;-76
2021/08/24 05:01:24;;;;;;;;;;;;;;;17.89;58.18;102240.94;4989687;28;98504;-77
2021/08/24 05:03:51;;;;;;;;;;;;;;;17.73;58.45;102242.50;4989263;28;97019;-77
2021/08/24 05:06:17;;;;;;;;;;;;;;;18.15;57.02;102236.28;4988780;28;98965;-77
2021/08/24 05:08:45;;;;;;;;;;;;;;;18.12;57.28;102241.75;4990174;28;98004;-77
2021/08/24 05:11:11;;;;;;;;;;;;;;;18.08;57.10;102240.16;4998483;28;98151;-78
2021/08/24 05:13:37;;;;;;;;;;;;;;;18.04;57.38;102243.91;4993403;28;98089;-76
2021/08/24 05:16:07;;;;;;;;;;;;;;;17.94;57.79;102246.09;4989216;28;99243;-77
2021/08/24 05:18:34;;;;;;;;;;;;;;;17.87;57.67;102242.81;4988850;28;98627;-76
2021/08/24 05:21:01;;;;;;;;;;;;;;;17.87;58.43;102247.28;4991961;28;96973;-75
2021/08/24 05:23:28;;;;;;;;;;;;;;;17.57;59.20;102241.38;4988648;28;97611;-76
2021/08/24 05:25:54;;;;;;;;;;;;;;;17.41;59.38;102248.28;4988634;28;99633;-76
2021/08/24 05:28:20;;;;;;;;;;;;;;;17.53;58.93;102250.44;4988388;28;99237;-76
2021/08/24 05:30:46;;;;;;;;;;;;;;;17.53;59.04;102245.09;4992192;28;96883;-76
2021/08/24 05:33:13;;;;;;;;;;;;;;;17.72;58.48;102248.78;4991686;28;97055;-76
2021/08/24 05:35:40;;;;;;;;;;;;;;;18.15;57.12;102247.84;4992798;28;99837;-76
2021/08/24 05:38:06;;;;;;;;;;;;;;;17.95;57.83;102252.31;4987922;28;98811;-77
2021/08/24 05:40:33;;;;;;;;;;;;;;;18.01;57.61;102246.69;4992189;28;96910;-77
2021/08/24 05:42:59;;;;;;;;;;;;;;;17.86;58.38;102250.88;4992468;28;96808;-77
2021/08/24 05:45:26;;;;;;;;;;;;;;;18.06;57.37;102250.03;4988013;28;99352;-78
2021/08/24 05:47:52;;;;;;;;;;;;;;;18.53;56.14;102256.84;4990665;28;98807;-78
2021/08/24 05:50:19;;;;;;;;;;;;;;;18.32;56.48;102258.69;4990419;28;96941;-78
2021/08/24 05:52:46;;;;;;;;;;;;;;;19.21;53.76;102249.28;4990835;28;97277;-76
2021/08/24 05:55:13;;;;;;;;;;;;;;;18.29;56.28;102255.28;4987003;28;98984;-75
2021/08/24 05:57:39;;;;;;;;;;;;;;;18.16;56.82;102260.28;4987077;28;99424;-76
2021/08/24 06:00:06;;;;;;;;;;;;;;;18.45;56.57;102252.78;4983202;28;97029;-77
2021/08/24 06:02:33;;;;;;;;;;;;;;;18.83;55.07;102261.81;4985662;28;97037;-76
2021/08/24 06:04:59;;;;;;;;;;;;;;;18.85;54.85;102268.81;4992672;28;99299;-76
2021/08/24 06:07:26;;;;;;;;;;;;;;;19.15;53.83;102268.34;4991893;28;99454;-76
2021/08/24 06:09:53;;;;;;;;;;;;;;;19.78;52.41;102265.22;4994280;28;97261;-76
2021/08/24 06:12:20;;;;;;;;;;;;;;;19.53;52.39;102263.84;4989678;28;97050;-75
2021/08/24 06:14:46;;;;;;;;;;;;;;;19.90;51.93;102269.09;4985806;28;99351;-77
2021/08/24 06:17:12;;;;;;;;;;;;;;;19.57;52.30;102265.41;4995390;28;98057;-78
2021/08/24 06:19:39;;;;;;;;;;;;;;;20.05;51.40;102260.28;4982898;28;97398;-77
2021/08/24 06:22:05;;;;;;;;;;;;;;;20.02;51.30;102268.47;4992742;28;97325;-77
2021/08/24 06:24:33;;;;;;;;;;;;;;;19.58;52.36;102262.66;4990255;28;98012;-76
2021/08/24 06:27:00;;;;;;;;;;;;;;;20.05;51.17;102262.97;4993099;28;98850;-75
2021/08/24 06:29:27;;;;;;;;;;;;;;;20.23;50.73;102267.38;4987066;28;96920;-76
2021/08/24 06:31:55;;;;;;;;;;;;;;;20.74;49.31;102270.13;4984747;28;97337;-76
2021/08/24 06:34:22;;;;;;;;;;;;;;;19.77;51.48;102270.66;4991449;28;97909;-76
2021/08/24 06:36:49;;;;;;;;;;;;;;;20.43;50.13;102268.19;4988388;28;98780;-76
2021/08/24 06:39:16;;;;;;;;;;;;;;;20.77;49.38;102272.63;4993100;28;97130;-76
2021/08/24 06:41:42;;;;;;;;;;;;;;;19.97;51.29;102275.91;4989972;28;97263;-77
2021/08/24 06:44:11;;;;;;;;;;;;;;;20.80;49.08;102281.41;4990797;28;99874;-76
2021/08/24 06:46:38;;;;;;;;;;;;;;;20.99;48.60;102279.47;4990022;28;98916;-77
2021/08/24 06:49:04;;;;;;;;;;;;;;;21.41;47.51;102294.16;4993540;28;97025;-77
2021/08/24 06:51:31;;;;;;;;;;;;;;;21.17;48.11;102287.47;4992933;28;97197;-77
2021/08/24 06:53:58;;;;;;;;;;;;;;;20.80;48.75;102291.28;4989592;28;101136;-76
2021/08/24 06:56:24;;;;;;;;;;;;;;;21.23;47.85;102285.31;4990866;28;98896;-77
2021/08/24 06:58:50;;;;;;;;;;;;;;;21.78;46.36;102299.19;4992743;28;96936;-77
2021/08/24 07:01:19;;;;;;;;;;;;;;;22.29;45.37;102297.09;4991355;28;98556;-77
2021/08/24 07:03:46;;;;;;;;;;;;;;;21.71;46.26;102295.13;4995075;28;99223;-78
2021/08/24 07:06:12;;;;;;;;;;;;;;;21.76;46.33;102298.41;4995042;28;98978;-77
2021/08/24 07:08:38;;;;;;;;;;;;;;;22.01;45.76;102292.50;5000279;28;98219;-76
2021/08/24 07:11:05;;;;;;;;;;;;;;;22.18;45.22;102296.88;4998069;28;97001;-75
2021/08/24 07:13:33;;;;;;;;;;;;;;;23.47;42.25;102296.00;4981481;28;99187;-76
2021/08/24 07:16:00;;;;;;;;;;;;;;;23.77;41.15;102291.28;4984516;28;99017;-78
2021/08/24 07:18:27;;;;;;;;;;;;;;;22.40;43.31;102296.44;4992603;28;97347;-77
2021/08/24 07:20:55;;;;;;;;;;;;;;;22.70;42.80;102289.19;4992991;28;96957;-76
2021/08/24 07:23:21;;;;;;;;;;;;;;;22.21;43.48;102291.31;4990250;28;98933;-77
2021/08/24 07:25:47;;;;;;;;;;;;;;;22.60;42.89;102288.88;4989173;28;99163;-76
2021/08/24 07:28:14;;;;;;;;;;;;;;;22.78;42.42;102294.09;4993153;28;96874;-77
2021/08/24 07:30:41;;;;;;;;;;;;;;;21.79;43.76;102298.22;4990172;28;99323;-76
2021/08/24 07:33:08;;;;;;;;;;;;;;;22.31;43.22;102300.59;4990686;28;99106;-77
2021/08/24 07:35:35;;;;;;;;;;;;;;;22.82;42.03;102307.31;4993464;28;99035;-75
2021/08/24 07:38:02;;;;;;;;;;;;;;;23.29;40.69;102304.31;4987844;28;97729;-76
2021/08/24 07:40:29;;;;;;;;;;;;;;;23.37;39.24;102312.75;4994330;28;97000;-77
2021/08/24 07:42:55;;;;;;;;;;;;;;;23.93;38.42;102308.22;4990859;28;98878;-75
2021/08/24 07:45:21;;;;;;;;;;;;;;;24.80;36.57;102313.03;4987361;28;98955;-75
2021/08/24 07:47:48;;;;;;;;;;;;;;;23.52;38.39;102307.38;4989814;28;97042;-76
2021/08/24 07:50:14;;;;;;;;;;;;;;;23.20;39.00;102306.72;4991093;28;97318;-76
2021/08/24 07:52:42;;;;;;;;;;;;;;;23.66;37.92;102313.59;4991941;28;99292;-75
2021/08/24 07:55:08;;;;;;;;;;;;;;;23.98;37.23;102313.28;4987563;28;98760;-75
2021/08/24 07:57:35;;;;;;;;;;;;;;;23.84;37.23;102311.50;4991215;28;97706;-74
2021/08/24 08:00:01;;;;;;;;;;;;;;;23.43;38.23;102311.53;4989366;28;97298;-77
2021/08/24 08:02:27;;;;;;;;;;;;;;;22.23;39.70;102314.50;4977881;28;99105;-76
2021/08/24 08:04:54;;;;;;;;;;;;;;;22.81;38.99;102310.09;4987457;28;99602;-76
2021/08/24 08:07:20;;;;;;;;;;;;;;;22.51;38.94;102320.91;4983002;28;98829;-75
2021/08/24 08:09:48;;;;;;;;;;;;;;;22.12;40.06;102326.88;4992480;28;96856;-79
2021/08/24 08:12:17;;;;;;;;;;;;;;;22.05;40.01;102320.09;4982839;28;98873;-75
2021/08/24 08:14:43;;;;;;;;;;;;;;;22.67;39.09;102314.47;4987888;28;98819;-75
2021/08/24 08:17:10;;;;;;;;;;;;;;;22.50;39.39;102327.25;4980132;28;96976;-76
2021/08/24 08:19:36;;;;;;;;;;;;;;;23.45;37.47;102323.94;4987415;28;97821;-75
2021/08/24 08:22:03;;;;;;;;;;;;;;;23.70;36.90;102322.34;4984133;28;98949;-77
2021/08/24 08:24:29;;;;;;;;;;;;;;;23.61;36.94;102325.66;4985986;28;99111;-76
2021/08/24 08:26:57;;;;;;;;;;;;;;;23.68;37.39;102327.00;4985552;28;98971;-78
2021/08/24 08:29:23;;;;;;;;;;;;;;;23.77;36.52;102332.66;4992859;28;97382;-79
2021/08/24 08:31:50;;;;;;;;;;;;;;;24.40;35.37;102325.75;4990769;28;98972;-78
2021/08/24 08:34:18;;;;;;;;;;;;;;;23.88;36.22;102339.19;4987915;28;99702;-78
2021/08/24 08:36:45;;;;;;;;;;;;;;;23.84;36.20;102338.50;4991477;28;97275;-77
2021/08/24 08:39:12;;;;;;;;;;;;;;;23.25;36.83;102342.34;4989875;28;97844;-78
2021/08/24 08:41:42;;;;;;;;;;;;;;;23.40;37.23;102339.53;4992831;28;102091;-78
2021/08/24 08:44:18;;;;;;;;;;;;;;;22.61;38.10;102336.41;4991338;28;99384;-76
2021/08/24 08:46:49;;;;;;;;;;;;;;;22.46;38.31;102334.63;4994248;28;96823;-76
2021/08/24 08:49:26;;;;;;;;;;;;;;;23.07;37.41;102335.44;4987097;28;97493;-77
2021/08/24 08:51:58;;;;;;;;;;;;;;;23.58;36.25;102331.25;4985536;28;100303;-76
2021/08/24 08:54:31;;;;;;;;;;;;;;;23.40;36.55;102333.28;4989757;28;99024;-79
2021/08/24 08:57:00;;;;;;;;;;;;;;;23.20;36.46;102334.56;4985227;28;96981;-77
2021/08/24 08:59:29;;;;;;;;;;;;;;;23.30;36.50;102335.69;4989601;28;96950;-77
2021/08/24 09:02:00;;;;;;;;;;;;;;;23.52;35.66;102334.34;4990546;28;98912;-76
2021/08/24 09:04:31;;;;;;;;;;;;;;;23.87;35.19;102343.72;4989366;28;99084;-77
2021/08/24 09:06:58;;;;;;;;;;;;;;;23.31;36.25;102332.03;4990882;28;97371;-76
2021/08/24 09:09:26;;;;;;;;;;;;;;;22.99;36.34;102349.38;4995593;28;96911;-76
2021/08/24 09:11:53;;;;;;;;;;;;;;;23.08;36.33;102350.66;4991836;28;101667;-78
2021/08/24 09:14:22;;;;;;;;;;;;;;;22.72;37.30;102354.59;4995992;28;98150;-75
2021/08/24 09:16:52;;;;;;;;;;;;;;;24.21;35.47;102355.88;4995128;28;97005;-75
2021/08/24 09:19:21;;;;;;;;;;;;;;;24.61;35.06;102351.31;5001233;28;96758;-77
2021/08/24 09:21:48;;;;;;;;;;;;;;;25.06;33.52;102349.06;4993270;28;98914;-76
2021/08/24 09:24:16;;;;;;;;;;;;;;;24.24;34.61;102361.03;4989523;28;99026;-77
2021/08/24 09:26:52;;;;;;;;;;;;;;;23.69;35.65;102361.13;4990841;28;97039;-75
2021/08/24 09:29:19;;;;;;;;;;;;;;;23.60;35.89;102359.00;4990744;28;97144;-75
2021/08/24 09:31:47;;;;;;;;;;;;;;;23.63;35.95;102364.22;4987289;28;100728;-76
2021/08/24 09:34:16;;;;;;;;;;;;;;;24.15;34.91;102361.66;4985560;28;99462;-76
2021/08/24 09:36:43;;;;;;;;;;;;;;;23.86;34.64;102363.56;4984807;28;97363;-76
2021/08/24 09:39:09;;;;;;;;;;;;;;;23.90;35.59;102367.78;4984485;28;99002;-75
2021/08/24 09:41:36;;;;;;;;;;;;;;;23.57;35.34;102367.28;4986529;28;98941;-75
2021/08/24 09:44:18;;;;;;;;;;;;;;;23.67;34.89;102363.03;4990469;28;99386;-75
2021/08/24 09:46:45;;;;;;;;;;;;;;;24.20;34.41;102354.13;4987383;28;97286;-75
2021/08/24 09:49:26;;;;;;;;;;;;;;;23.72;35.20;102358.22;4986277;28;97152;-76
2021/08/24 09:51:55;;;;;;;;;;;;;;;24.15;34.83;102362.50;4983728;28;98865;-75
2021/08/24 09:54:29;;;;;;;;;;;;;;;25.13;33.65;102356.63;4981669;28;98789;-75
2021/08/24 09:56:57;;;;;;;;;;;;;;;24.44;34.57;102352.44;4985231;28;99051;-76
2021/08/24 09:59:26;;;;;;;;;;;;;;;24.24;34.89;102355.63;4980776;28;99065;-76
2021/08/24 10:01:55;;;;;;;;;;;;;;;24.83;33.95;102348.81;4984694;28;118669;-75
2021/08/24 10:04:21;;;;;;;;;;;;;;;25.27;33.04;102361.06;4982683;28;98900;-75
2021/08/24 10:06:56;;;;;;;;;;;;;;;23.68;35.29;102362.09;4980629;28;99467;-76
2021/08/24 10:09:25;;;;;;;;;;;;;;;24.11;34.52;102360.97;4982118;28;98172;-76
2021/08/24 10:11:52;;;;;;;;;;;;;;;23.81;34.88;102363.00;4988647;28;99177;-75
2021/08/24 10:14:20;;;;;;;;;;;;;;;23.96;34.52;102367.38;4988437;28;99306;-76
2021/08/24 10:16:47;;;;;;;;;;;;;;;23.91;34.25;102347.06;4992066;28;98060;-77
2021/08/24 10:19:17;;;;;;;;;;;;;;;24.68;33.66;102349.88;4991931;28;98258;-74
2021/08/24 10:21:45;;;;;;;;;;;;;;;25.15;32.79;102354.66;4992808;28;98942;-75
2021/08/24 10:24:14;;;;;;;;;;;;;;;24.53;32.26;102354.53;5000069;28;98837;-75
2021/08/24 10:26:41;;;;;;;;;;;;;;;24.67;32.21;102358.13;4997875;28;97192;-74
2021/08/24 10:29:09;;;;;;;;;;;;;;;25.25;31.56;102358.47;4997944;28;96729;-73
2021/08/24 10:31:38;;;;;;;;;;;;;;;25.10;31.63;102367.66;4996572;28;98909;-77
2021/08/24 10:34:06;;;;;;;;;;;;;;;25.61;31.54;102357.66;5000931;28;98950;-75
2021/08/24 10:36:34;;;;;;;;;;;;;;;25.80;31.57;102357.16;5002800;28;96922;-76
2021/08/24 10:39:01;;;;;;;;;;;;;;;25.61;31.58;102362.19;4994836;28;99479;-75
2021/08/24 10:41:48;;;;;;;;;;;;;;;25.21;32.92;102348.81;4988325;28;99896;-75
2021/08/24 10:44:19;;;;;;;;;;;;;;;25.64;32.12;102349.31;4985020;28;99070;-75
2021/08/24 10:46:53;;;;;;;;;;;;;;;24.17;33.63;102355.16;4999073;28;96844;-76
2021/08/24 10:49:19;;;;;;;;;;;;;;;25.21;33.16;102354.22;4997880;28;97005;-76
2021/08/24 10:51:51;;;;;;;;;;;;;;;25.15;33.31;102338.44;4993213;28;98975;-76
2021/08/24 10:54:23;;;;;;;;;;;;;;;25.02;33.85;102351.97;4993277;28;98805;-77
2021/08/24 10:56:51;;;;;;;;;;;;;;;24.21;34.34;102342.34;4993883;28;97272;-77
2021/08/24 10:59:26;;;;;;;;;;;;;;;24.11;34.19;102346.59;4992356;28;97395;-78
2021/08/24 11:01:57;;;;;;;;;;;;;;;24.08;34.02;102345.00;4991395;28;101834;-78
2021/08/24 11:04:39;;;;;;;;;;;;;;;25.43;31.67;102345.44;4974756;28;99083;-78
2021/08/24 11:07:13;;;;;;;;;;;;;;;25.28;33.42;102350.09;4986053;28;97087;-76
2021/08/24 11:09:45;;;;;;;;;;;;;;;24.63;31.11;102349.34;4990659;28;97435;-77
2021/08/24 11:12:19;;;;;;;;;;;;;;;24.20;29.72;102340.63;4989700;28;98965;-77
2021/08/24 11:14:51;;;;;;;;;;;;;;;25.04;29.69;102340.19;4993917;28;98999;-78
2021/08/24 11:17:26;;;;;;;;;;;;;;;24.82;30.69;102347.06;4993141;28;98593;-80
2021/08/24 11:20:00;;;;;;;;;;;;;;;24.78;31.25;102340.16;4994054;28;97044;-78
2021/08/24 11:22:30;;;;;;;;;;;;;;;24.14;32.28;102344.56;4986046;28;98877;-77
2021/08/24 11:25:03;;;;;;;;;;;;;;;24.58;31.26;102336.16;4984488;28;103845;-76
2021/08/24 11:27:34;;;;;;;;;;;;;;;24.89;30.90;102337.59;4980048;28;97470;-75
2021/08/24 11:30:09;;;;;;;;;;;;;;;25.00;31.00;102337.72;4993515;28;97257;-77
2021/08/24 11:32:37;;;;;;;;;;;;;;;24.37;30.02;102342.16;4993542;28;98212;-76
2021/08/24 11:35:07;;;;;;;;;;;;;;;24.15;31.08;102338.22;4994318;28;99687;-76
2021/08/24 11:37:36;;;;;;;;;;;;;;;24.40;31.21;102334.72;4991921;28;97275;-76
2021/08/24 11:40:03;;;;;;;;;;;;;;;24.55;31.39;102338.19;4987913;28;97487;-75
2021/08/24 11:42:31;;;;;;;;;;;;;;;24.79;29.74;102335.63;4990952;28;98217;-77
2021/08/24 11:44:58;;;;;;;;;;;;;;;24.95;30.04;102336.28;4993457;28;98794;-78
2021/08/24 11:47:30;;;;;;;;;;;;;;;25.65;28.77;102342.94;4991611;28;96907;-75
2021/08/24 11:50:00;;;;;;;;;;;;;;;26.01;29.83;102346.56;4989412;28;97085;-77
2021/08/24 11:52:28;;;;;;;;;;;;;;;25.60;29.29;102339.66;4987112;28;98927;-76
2021/08/24 11:54:59;;;;;;;;;;;;;;;24.85;30.74;102344.16;4992333;28;98901;-76
2021/08/24 11:57:29;;;;;;;;;;;;;;;26.12;29.61;102341.22;4990484;28;97004;-76
2021/08/24 12:00:02;;;;;;;;;;;;;;;25.41;29.64;102334.72;4989156;28;97067;-76
2021/08/24 12:02:36;;;;;;;;;;;;;;;24.61;30.86;102335.09;4990983;28;97647;-78
2021/08/24 12:05:13;;;;;;;;;;;;;;;26.22;28.92;102336.81;4986121;28;99242;-77
2021/08/24 12:07:41;;;;;;;;;;;;;;;25.58;29.34;102349.78;4991130;28;98917;-76
2021/08/24 12:10:18;;;;;;;;;;;;;;;25.26;29.46;102352.09;4991543;28;97051;-77
2021/08/24 12:12:50;;;;;;;;;;;;;;;24.89;30.11;102345.72;4988311;28;99030;-76
2021/08/24 12:15:26;;;;;;;;;;;;;;;24.83;30.44;102345.25;4986414;28;99150;-77
2021/08/24 12:18:01;;;;;;;;;;;;;;;25.55;29.53;102347.25;4991365;28;97332;-78
2021/08/24 12:20:30;;;;;;;;;;;;;;;25.60;30.03;102344.25;4991425;28;97341;-78
2021/08/24 12:22:58;;;;;;;;;;;;;;;25.06;29.58;102346.38;4991182;28;99125;-76
2021/08/24 12:25:31;;;;;;;;;;;;;;;25.15;29.50;102340.28;4990874;28;98973;-77
2021/08/24 12:28:02;;;;;;;;;;;;;;;24.22;30.66;102335.97;4992488;28;97264;-78
2021/08/24 12:30:30;;;;;;;;;;;;;;;25.12;30.29;102337.81;4993411;28;96874;-77
2021/08/24 12:33:06;;;;;;;;;;;;;;;25.22;30.73;102331.63;4994224;28;99255;-78
2021/08/24 12:35:35;;;;;;;;;;;;;;;25.16;29.92;102340.19;4989333;28;99119;-76
2021/08/24 12:38:02;;;;;;;;;;;;;;;24.67;30.22;102331.97;4991908;28;98979;-80
2021/08/24 12:40:58;;;;;;;;;;;;;;;25.95;28.96;102333.47;4992806;28;97348;-77
2021/08/24 12:43:27;;;;;;;;;;;;;;;25.78;29.26;102335.63;4991001;28;98296;-77